METAR Formatted Surface Weather Observation
Issued by NWS

Home | Current Version | Previous Version | Text Only | Print | Product List | Glossary On
Versions: 1 2 3 4 5 6 7 8 9 10 11 12 13 14 15 16 17 18 19 20 21 22 23 24 25
000
SAUS45 KBOU 211857
MTRABH
METAR KABH 211856Z AUTO 19012G16KT 10SM CLR 20/03 A3005 RMK AO2
SLP121 T02000033 $



USA.gov is the U.S. government's official web portal to all federal, state and local government web resources and services.